Terminal Aerodrome Forecast
Issued by NWS

Home | Current Version | Previous Version | Text Only | Print | Product List | Glossary Off
Versions: 1 2 3 4 5 6 7 8 9 10 11 12 13 14 15

000
FTUS43 KMPX 161700 RRA
TAFRWF
TAF
KRWF 161744Z 1618/1718 08012G18KT 3SM -SN BR OVC025
      TEMPO 1618/1620 1SM -RASN BR OVC015
     FM162000 05012G20KT 3SM -RA BR OVC025
     FM162200 01017G25KT 2SM -SN BR OVC010
     FM170300 34016G24KT 5SM BR OVC015
     FM170800 33012G20KT P6SM BKN020
     FM171200 34011KT P6SM BKN025=

USA.gov is the U.S. government's official web portal to all federal, state and local government web resources and services.